createdAt,value
2022-08-17T00:01:27.177Z,3.20
2022-08-17T00:03:55.275Z,3.05
2022-08-17T00:06:30.857Z,3.65
2022-08-17T00:09:02.253Z,2.35
2022-08-17T00:11:37.748Z,4.42
2022-08-17T00:14:16.262Z,3.55
2022-08-17T00:16:55.383Z,2.80
2022-08-17T00:19:23.114Z,5.17
2022-08-17T00:22:32.649Z,4.97
2022-08-17T00:24:25.004Z,7.47
2022-08-17T00:26:52.880Z,6.40
2022-08-17T00:29:20.626Z,6.72
2022-08-17T00:31:49.545Z,6.22
2022-08-17T00:34:17.693Z,6.10
2022-08-17T00:36:45.552Z,6.00
2022-08-17T00:39:13.240Z,6.70
2022-08-17T00:41:42.563Z,7.20
2022-08-17T00:44:11.706Z,9.70
2022-08-17T00:46:42.322Z,12.43
2022-08-17T00:49:12.880Z,8.18
2022-08-17T00:51:56.946Z,6.95
2022-08-17T00:54:29.152Z,5.15
2022-08-17T00:57:08.331Z,4.15
2022-08-17T00:59:44.373Z,4.20
2022-08-17T01:02:15.955Z,4.12
2022-08-17T01:04:46.427Z,5.33
2022-08-17T01:07:15.425Z,6.53
2022-08-17T01:09:44.060Z,5.83
2022-08-17T01:12:12.314Z,4.75
2022-08-17T01:14:41.105Z,4.42
2022-08-17T01:17:09.679Z,2.95
2022-08-17T01:19:41.370Z,7.65
2022-08-17T01:22:16.095Z,3.37
2022-08-17T01:24:49.203Z,3.15
2022-08-17T01:27:18.512Z,3.80
2022-08-17T01:29:52.549Z,4.42
2022-08-17T01:32:20.181Z,3.55
2022-08-17T01:34:50.416Z,5.42
2022-08-17T01:37:20.973Z,3.87
2022-08-17T01:39:53.116Z,5.17
2022-08-17T01:42:32.397Z,6.83
2022-08-17T01:45:11.080Z,4.92
2022-08-17T01:47:38.760Z,4.55
2022-08-17T01:50:15.458Z,8.35
2022-08-17T01:52:45.670Z,6.53
2022-08-17T01:55:17.056Z,6.65
2022-08-17T01:57:45.110Z,5.67
2022-08-17T02:00:14.193Z,5.87
2022-08-17T02:02:44.017Z,6.85
2022-08-17T02:05:12.129Z,7.22
2022-08-17T02:07:59.892Z,7.83
2022-08-17T02:10:20.295Z,10.58
2022-08-17T02:12:50.188Z,7.87
2022-08-17T02:15:25.578Z,14.33
2022-08-17T02:17:57.451Z,8.85
2022-08-17T02:20:41.934Z,13.03
2022-08-17T02:22:58.413Z,7.65
2022-08-17T02:25:34.317Z,7.53
2022-08-17T02:28:08.672Z,6.00
2022-08-17T02:31:01.410Z,7.33
2022-08-17T02:33:17.226Z,5.33
2022-08-17T02:35:52.947Z,5.70
2022-08-17T02:38:20.695Z,5.15
2022-08-17T02:40:48.688Z,14.98
2022-08-17T02:43:17.779Z,5.50
2022-08-17T02:45:45.423Z,3.85
2022-08-17T02:48:13.219Z,4.83
2022-08-17T02:50:40.847Z,5.80
2022-08-17T02:53:08.468Z,3.72
2022-08-17T02:55:39.836Z,3.45
2022-08-17T02:58:10.114Z,4.95
2022-08-17T03:00:42.312Z,3.70
2022-08-17T03:03:13.086Z,5.55
2022-08-17T03:05:41.358Z,2.58
2022-08-17T03:08:12.971Z,3.65
2022-08-17T03:10:39.207Z,2.70
2022-08-17T03:13:06.847Z,2.25
2022-08-17T03:15:35.344Z,3.67
2022-08-17T03:18:03.405Z,4.65
2022-08-17T03:20:32.542Z,2.72
2022-08-17T03:23:02.005Z,4.37
2022-08-17T03:25:35.059Z,6.10
2022-08-17T03:28:04.864Z,3.40
2022-08-17T03:30:33.306Z,3.70
2022-08-17T03:33:05.903Z,5.10
2022-08-17T03:35:35.999Z,4.67
2022-08-17T03:38:04.512Z,2.98
2022-08-17T03:40:55.500Z,4.47
2022-08-17T03:43:09.142Z,5.33
2022-08-17T03:45:56.143Z,5.58
2022-08-17T03:48:42.487Z,7.15
2022-08-17T03:51:34.187Z,7.90
2022-08-17T03:54:20.521Z,7.47
2022-08-17T03:57:05.212Z,6.08
2022-08-17T03:59:34.356Z,8.45
2022-08-17T04:02:11.024Z,7.37
2022-08-17T04:04:39.344Z,5.15
2022-08-17T04:07:07.934Z,9.00
2022-08-17T04:09:36.068Z,6.55
2022-08-17T04:12:05.222Z,5.05
2022-08-17T04:14:36.017Z,5.95
2022-08-17T04:17:05.865Z,6.40
2022-08-17T04:19:33.841Z,6.83
2022-08-17T04:22:01.568Z,4.67
2022-08-17T04:24:29.362Z,5.50
2022-08-17T04:26:56.983Z,3.00
2022-08-17T04:29:25.703Z,3.35
2022-08-17T04:31:55.293Z,2.77
2022-08-17T04:34:24.371Z,4.37
2022-08-17T04:36:52.479Z,3.33
2022-08-17T04:39:20.037Z,5.20
2022-08-17T04:42:06.003Z,2.75
2022-08-17T04:44:37.397Z,3.33
2022-08-17T04:47:06.785Z,2.92
2022-08-17T04:49:37.100Z,2.72
2022-08-17T04:52:05.168Z,5.10
2022-08-17T04:54:32.950Z,3.30
2022-08-17T04:57:00.692Z,4.08
2022-08-17T04:59:28.296Z,5.47
2022-08-17T05:01:55.965Z,4.85
2022-08-17T05:04:34.229Z,4.58
2022-08-17T05:06:55.269Z,7.03
2022-08-17T05:09:22.959Z,3.33
2022-08-17T05:11:52.441Z,3.83
2022-08-17T05:14:22.064Z,5.03
2022-08-17T05:16:51.556Z,3.22
2022-08-17T05:19:19.225Z,3.90
2022-08-17T05:21:46.947Z,7.28
2022-08-17T05:24:38.488Z,13.80
2022-08-17T05:26:44.240Z,7.15
2022-08-17T05:29:11.869Z,6.25
2022-08-17T05:31:39.648Z,8.28
2022-08-17T05:34:07.250Z,7.17
2022-08-17T05:36:43.364Z,4.35
2022-08-17T05:39:04.605Z,4.05
2022-08-17T05:41:32.054Z,5.80
2022-08-17T05:43:59.564Z,4.78
2022-08-17T05:46:34.533Z,5.78
2022-08-17T05:49:07.661Z,4.78
2022-08-17T05:52:10.098Z,5.80
2022-08-17T05:54:58.444Z,4.75
2022-08-17T05:57:53.639Z,7.10
2022-08-17T06:00:26.487Z,4.45
2022-08-17T06:03:35.590Z,3.45
2022-08-17T06:06:25.116Z,5.28
2022-08-17T06:09:07.427Z,6.60
2022-08-17T06:11:40.614Z,5.58
2022-08-17T06:14:28.819Z,5.17
2022-08-17T06:17:08.066Z,5.85
2022-08-17T06:19:56.069Z,6.62
2022-08-17T06:22:32.647Z,7.12
2022-08-17T06:25:20.761Z,5.70
2022-08-17T06:28:05.189Z,6.22
2022-08-17T06:30:58.296Z,8.03
2022-08-17T06:33:13.364Z,8.20
2022-08-17T06:35:55.465Z,10.00
2022-08-17T06:38:49.416Z,8.83
2022-08-17T06:41:52.072Z,7.10
2022-08-17T06:44:43.312Z,10.63
2022-08-17T06:47:08.983Z,9.55
2022-08-17T06:49:55.269Z,12.98
2022-08-17T06:52:45.438Z,13.72
2022-08-17T06:55:08.883Z,10.82
2022-08-17T06:57:46.774Z,16.42
2022-08-17T07:00:22.723Z,20.68
2022-08-17T07:03:15.065Z,31.37
2022-08-17T07:05:51.253Z,15.63
2022-08-17T07:08:37.478Z,12.82
2022-08-17T07:11:12.930Z,14.13
2022-08-17T07:13:56.978Z,9.60
2022-08-17T07:16:40.675Z,7.53
2022-08-17T07:19:11.028Z,12.28
2022-08-17T07:21:59.170Z,10.80
2022-08-17T07:24:44.758Z,7.33
2022-08-17T07:27:20.806Z,5.80
2022-08-17T07:30:08.131Z,6.72
2022-08-17T07:32:47.920Z,6.30
2022-08-17T07:35:40.783Z,9.98
2022-08-17T07:38:25.185Z,3.67
2022-08-17T07:41:00.195Z,6.28
2022-08-17T07:43:36.189Z,4.12
2022-08-17T07:46:44.980Z,5.72
2022-08-17T07:49:18.518Z,8.60
2022-08-17T07:51:51.443Z,4.08
2022-08-17T07:54:36.753Z,4.30
2022-08-17T07:57:25.360Z,5.72
2022-08-17T08:00:16.471Z,5.20
2022-08-17T08:02:48.928Z,4.45
2022-08-17T08:05:50.420Z,3.75
2022-08-17T08:08:04.156Z,4.67
2022-08-17T08:10:42.532Z,2.83
2022-08-17T08:13:23.113Z,2.60
2022-08-17T08:15:58.874Z,3.75
2022-08-17T08:18:53.890Z,3.75
2022-08-17T08:21:11.168Z,4.22
2022-08-17T08:23:42.452Z,3.95
2022-08-17T08:26:34.716Z,4.45
2022-08-17T08:29:22.106Z,4.65
2022-08-17T08:32:36.748Z,3.75
2022-08-17T08:35:12.847Z,4.47
2022-08-17T08:37:55.167Z,3.98
2022-08-17T08:40:40.459Z,7.85
2022-08-17T08:44:00.414Z,5.22
2022-08-17T08:46:40.123Z,5.42
2022-08-17T08:49:59.000Z,5.12
2022-08-17T08:52:01.371Z,5.03
2022-08-17T08:54:46.678Z,4.25
2022-08-17T08:57:30.757Z,3.95
2022-08-17T09:00:11.169Z,5.60
2022-08-17T09:03:03.658Z,5.78
2022-08-17T09:05:48.852Z,4.97
2022-08-17T09:08:27.847Z,6.95
2022-08-17T09:11:10.308Z,6.78
2022-08-17T09:14:01.161Z,6.43
2022-08-17T09:16:40.983Z,6.33
2022-08-17T09:19:20.033Z,6.60
2022-08-17T09:21:55.723Z,4.25
2022-08-17T09:24:37.299Z,4.60
2022-08-17T09:27:18.483Z,4.37
2022-08-17T09:29:55.989Z,4.72
2022-08-17T09:32:41.194Z,6.87
2022-08-17T09:35:32.765Z,4.80
2022-08-17T09:38:19.444Z,5.22
2022-08-17T09:41:15.470Z,7.08
2022-08-17T09:44:00.431Z,6.53
2022-08-17T09:46:38.905Z,5.90
2022-08-17T09:49:32.509Z,7.22
2022-08-17T09:54:40.866Z,4.10
2022-08-17T09:57:30.332Z,5.42
2022-08-17T10:00:11.237Z,5.12
2022-08-17T10:03:00.059Z,5.80
2022-08-17T10:06:02.244Z,5.00
2022-08-17T10:09:01.085Z,4.67
2022-08-17T10:12:10.821Z,5.75
2022-08-17T10:14:56.136Z,5.45
2022-08-17T10:17:55.921Z,6.10
2022-08-17T10:20:29.713Z,4.58
2022-08-17T10:23:21.578Z,6.70
2022-08-17T10:26:15.352Z,5.70
2022-08-17T10:28:53.615Z,6.55
2022-08-17T10:31:35.995Z,5.83
2022-08-17T10:34:38.741Z,4.05
2022-08-17T10:37:48.369Z,7.25
2022-08-17T10:40:27.293Z,6.30
2022-08-17T10:43:00.523Z,5.67
2022-08-17T10:46:13.369Z,5.17
2022-08-17T10:48:38.419Z,5.42
2022-08-17T10:51:13.918Z,4.17
2022-08-17T10:53:48.059Z,5.62
2022-08-17T10:56:22.320Z,12.25
2022-08-17T10:58:56.850Z,6.12
2022-08-17T11:01:41.196Z,6.03
2022-08-17T11:04:21.005Z,7.12
2022-08-17T11:07:03.442Z,6.67
2022-08-17T11:09:39.469Z,7.25
2022-08-17T11:13:00.785Z,5.28
2022-08-17T11:15:46.646Z,5.15
2022-08-17T11:18:31.531Z,5.47
2022-08-17T11:21:31.338Z,5.17
2022-08-17T11:24:38.286Z,8.98
2022-08-17T11:27:26.192Z,5.50
2022-08-17T11:30:02.246Z,6.83
2022-08-17T11:32:54.720Z,7.65
2022-08-17T11:35:29.261Z,8.03
2022-08-17T11:38:16.849Z,8.25
2022-08-17T11:41:11.530Z,6.58
2022-08-17T11:44:05.538Z,7.65
2022-08-17T11:47:18.252Z,7.92
2022-08-17T11:50:40.401Z,7.07
2022-08-17T11:53:38.021Z,7.17
2022-08-17T11:56:10.946Z,6.78
2022-08-17T11:58:45.559Z,7.12
2022-08-17T12:01:28.788Z,6.60
2022-08-17T12:04:18.322Z,6.58
2022-08-17T12:06:54.386Z,7.67
2022-08-17T12:09:27.508Z,6.65
2022-08-17T12:15:08.469Z,6.70
2022-08-17T12:17:11.690Z,8.78
2022-08-17T12:19:42.706Z,6.67
2022-08-17T12:22:32.841Z,5.67
2022-08-17T12:25:15.653Z,10.18
2022-08-17T12:28:05.591Z,8.38
2022-08-17T12:30:21.911Z,8.33
2022-08-17T12:32:50.448Z,7.35
2022-08-17T12:35:35.415Z,7.25
2022-08-17T12:38:31.833Z,5.75
2022-08-17T12:40:37.415Z,7.65
2022-08-17T12:43:10.910Z,5.40
2022-08-17T12:45:39.717Z,9.63
2022-08-17T12:48:14.950Z,6.85
2022-08-17T12:50:45.351Z,10.50
2022-08-17T12:53:20.658Z,8.63
2022-08-17T12:55:50.286Z,6.70
2022-08-17T12:58:26.167Z,7.10
2022-08-17T13:01:11.906Z,9.38
2022-08-17T13:03:50.956Z,8.93
2022-08-17T13:06:34.635Z,5.25
2022-08-17T13:09:17.035Z,9.33
2022-08-17T13:11:54.672Z,8.45
2022-08-17T13:14:22.613Z,7.72
2022-08-17T13:16:59.012Z,7.80
2022-08-17T13:19:39.945Z,7.55
2022-08-17T13:22:01.554Z,6.70
2022-08-17T13:24:38.578Z,5.47
2022-08-17T13:27:08.674Z,5.62
2022-08-17T13:29:52.801Z,7.30
2022-08-17T13:32:39.889Z,6.03
2022-08-17T13:35:40.089Z,7.35
2022-08-17T13:38:11.293Z,6.15
2022-08-17T13:40:50.003Z,5.58
2022-08-17T13:43:44.724Z,8.70
2022-08-17T13:46:23.819Z,7.03
2022-08-17T13:49:05.733Z,7.05
2022-08-17T13:51:44.133Z,5.85
2022-08-17T13:54:36.841Z,8.28
2022-08-17T13:57:18.598Z,6.87
2022-08-17T13:59:54.673Z,10.18
2022-08-17T14:02:20.485Z,7.03
2022-08-17T14:04:48.374Z,8.28
2022-08-17T14:07:21.372Z,8.33
2022-08-17T14:09:54.474Z,7.12
2022-08-17T14:12:26.252Z,11.88
2022-08-17T14:14:55.901Z,7.80
2022-08-17T14:17:24.377Z,6.97
2022-08-17T14:19:52.826Z,5.40
2022-08-17T14:22:31.184Z,8.65
2022-08-17T14:25:01.245Z,7.20
2022-08-17T14:27:32.521Z,8.55
2022-08-17T14:30:01.691Z,11.03
2022-08-17T14:32:36.292Z,10.03
2022-08-17T14:35:05.833Z,7.75
2022-08-17T14:37:33.997Z,8.10
2022-08-17T14:40:05.997Z,8.88
2022-08-17T14:42:37.072Z,10.00
2022-08-17T14:45:29.607Z,9.23
2022-08-17T14:47:41.252Z,11.95
2022-08-17T14:50:13.164Z,12.73
2022-08-17T14:52:42.874Z,10.08
2022-08-17T14:55:12.488Z,9.35
2022-08-17T14:57:41.762Z,8.13
2022-08-17T15:00:10.320Z,10.35
2022-08-17T15:02:53.477Z,6.30
2022-08-17T15:05:24.740Z,10.03
2022-08-17T15:07:53.070Z,11.48
2022-08-17T15:10:21.337Z,8.53
2022-08-17T15:12:49.141Z,7.08
2022-08-17T15:15:18.020Z,7.72
2022-08-17T15:17:46.261Z,7.12
2022-08-17T15:20:20.197Z,4.80
2022-08-17T15:22:49.174Z,4.58
2022-08-17T15:25:19.090Z,4.78
2022-08-17T15:27:46.923Z,7.47
2022-08-17T15:30:15.016Z,5.67
2022-08-17T15:32:51.405Z,6.35
2022-08-17T15:35:14.081Z,5.78
2022-08-17T15:37:41.888Z,6.90
2022-08-17T15:40:12.321Z,8.03
2022-08-17T15:42:40.766Z,6.72
2022-08-17T15:45:12.854Z,6.15
2022-08-17T15:47:42.104Z,8.33
2022-08-17T15:50:10.628Z,4.95
2022-08-17T15:52:39.927Z,8.05
2022-08-17T15:55:12.640Z,9.23
2022-08-17T15:57:40.854Z,6.95
2022-08-17T16:00:10.151Z,6.80
2022-08-17T16:03:13.776Z,9.50
2022-08-17T16:05:16.007Z,8.85
2022-08-17T16:07:45.395Z,7.60
2022-08-17T16:10:18.228Z,10.40
2022-08-17T16:12:47.399Z,11.20
2022-08-17T16:15:16.803Z,7.45
2022-08-17T16:17:44.791Z,7.65
2022-08-17T16:20:19.960Z,6.75
2022-08-17T16:22:46.039Z,6.87
2022-08-17T16:25:21.445Z,6.72
2022-08-17T16:27:53.510Z,8.40
2022-08-17T16:30:24.728Z,7.87
2022-08-17T16:32:54.609Z,8.25
2022-08-17T16:35:26.121Z,7.08
2022-08-17T16:37:56.605Z,7.97
2022-08-17T16:40:35.647Z,8.65
2022-08-17T16:43:01.106Z,7.03
2022-08-17T16:45:32.294Z,11.03
2022-08-17T16:48:01.101Z,9.33
2022-08-17T16:50:28.698Z,9.35
2022-08-17T16:53:06.752Z,5.60
2022-08-17T16:55:35.173Z,7.25
2022-08-17T16:58:05.837Z,8.03
2022-08-17T17:00:34.388Z,9.65
2022-08-17T17:03:20.523Z,7.95
2022-08-17T17:06:18.898Z,8.33
2022-08-17T17:08:59.118Z,7.28
2022-08-17T17:11:50.428Z,8.63
2022-08-17T17:14:27.936Z,8.00
2022-08-17T17:17:25.465Z,6.55
2022-08-17T17:20:16.158Z,6.92
2022-08-17T17:23:11.283Z,8.45
2022-08-17T17:25:54.177Z,7.65
2022-08-17T17:28:39.996Z,7.05
2022-08-17T17:31:25.460Z,6.17
2022-08-17T17:34:00.935Z,6.67
2022-08-17T17:36:39.792Z,8.98
2022-08-17T17:39:15.481Z,9.25
2022-08-17T17:41:56.820Z,12.47
2022-08-17T17:44:41.471Z,9.20
2022-08-17T17:47:09.692Z,10.30
2022-08-17T17:49:44.452Z,9.75
2022-08-17T17:52:46.657Z,7.72
2022-08-17T17:55:25.003Z,14.90
2022-08-17T17:58:23.768Z,11.08
2022-08-17T18:01:11.731Z,12.45
2022-08-17T18:03:50.683Z,12.10
2022-08-17T18:06:49.924Z,10.78
2022-08-17T18:09:33.849Z,8.43
2022-08-17T18:12:16.156Z,9.88
2022-08-17T18:15:16.389Z,9.80
2022-08-17T18:18:17.651Z,7.87
2022-08-17T18:20:53.687Z,9.03
2022-08-17T18:23:27.722Z,8.10
2022-08-17T18:25:53.946Z,7.83
2022-08-17T18:28:39.953Z,7.22
2022-08-17T18:31:20.439Z,8.88
2022-08-17T18:33:59.332Z,8.28
2022-08-17T18:36:32.099Z,8.68
2022-08-17T18:39:27.879Z,11.55
2022-08-17T18:41:59.096Z,10.35
2022-08-17T18:44:37.779Z,9.95
2022-08-17T18:47:16.207Z,11.43
2022-08-17T18:49:57.905Z,11.40
2022-08-17T18:52:32.442Z,9.78
2022-08-17T18:55:13.636Z,8.65
2022-08-17T18:57:55.470Z,7.50
2022-08-17T19:00:42.465Z,10.05
2022-08-17T19:03:24.699Z,10.50
2022-08-17T19:05:57.273Z,8.78
2022-08-17T19:08:33.018Z,12.73
2022-08-17T19:11:29.134Z,10.53
2022-08-17T19:14:12.846Z,13.32
2022-08-17T19:16:51.681Z,13.78
2022-08-17T19:19:27.285Z,13.32
2022-08-17T19:22:00.201Z,11.10
2022-08-17T19:24:31.362Z,13.80
2022-08-17T19:27:12.599Z,11.57
2022-08-17T19:30:08.053Z,9.80
2022-08-17T19:32:35.902Z,10.20
2022-08-17T19:35:07.829Z,10.28
2022-08-17T19:38:04.351Z,11.05
2022-08-17T19:40:58.657Z,14.58
2022-08-17T19:43:38.028Z,11.05
2022-08-17T19:46:43.139Z,11.18
2022-08-17T19:49:33.438Z,8.98
2022-08-17T19:52:16.928Z,12.05
2022-08-17T19:54:54.927Z,9.25
2022-08-17T19:57:36.939Z,12.33
2022-08-17T20:00:17.071Z,11.03
2022-08-17T20:03:06.322Z,9.95
2022-08-17T20:06:10.831Z,11.30
2022-08-17T20:08:22.681Z,15.10
2022-08-17T20:11:01.360Z,16.20
2022-08-17T20:13:37.075Z,10.43
2022-08-17T20:16:05.796Z,11.73
2022-08-17T20:18:48.138Z,18.05
2022-08-17T20:21:28.394Z,16.75
2022-08-17T20:24:30.296Z,15.55
2022-08-17T20:27:20.020Z,15.68
2022-08-17T20:30:09.829Z,13.38
2022-08-17T20:32:54.935Z,14.50
2022-08-17T20:35:28.159Z,9.33
2022-08-17T20:38:10.468Z,12.70
2022-08-17T20:40:56.920Z,15.63
2022-08-17T20:43:38.890Z,18.70
2022-08-17T20:46:37.778Z,10.90
2022-08-17T20:49:26.586Z,10.80
2022-08-17T20:52:07.336Z,16.23
2022-08-17T20:54:49.278Z,12.88
2022-08-17T20:57:37.712Z,24.85
2022-08-17T21:00:31.598Z,20.02
2022-08-17T21:03:26.146Z,15.90
2022-08-17T21:06:09.409Z,10.85
2022-08-17T21:08:45.887Z,15.00
2022-08-17T21:12:00.062Z,12.50
2022-08-17T21:14:16.939Z,9.85
2022-08-17T21:17:07.017Z,11.90
2022-08-17T21:20:17.089Z,14.28
2022-08-17T21:23:33.109Z,16.50
2022-08-17T21:26:29.649Z,16.00
2022-08-17T21:29:31.705Z,15.58
2022-08-17T21:32:05.391Z,13.80
2022-08-17T21:34:43.252Z,13.48
2022-08-17T21:37:30.971Z,12.28
2022-08-17T21:40:25.234Z,10.45
2022-08-17T21:43:00.977Z,17.23
2022-08-17T21:45:38.439Z,14.50
2022-08-17T21:48:17.260Z,15.93
2022-08-17T21:51:02.403Z,11.03
2022-08-17T21:53:53.242Z,10.95
2022-08-17T21:56:34.486Z,15.55
2022-08-17T21:59:10.194Z,10.68
2022-08-17T22:01:40.597Z,14.10
2022-08-17T22:04:26.153Z,10.38
2022-08-17T22:06:57.106Z,13.38
2022-08-17T22:09:32.866Z,10.23
2022-08-17T22:12:11.342Z,17.45
2022-08-17T22:14:53.370Z,18.73
2022-08-17T22:17:20.542Z,17.35
2022-08-17T22:19:56.240Z,14.78
2022-08-17T22:22:34.813Z,13.85
2022-08-17T22:25:07.060Z,19.48
2022-08-17T22:27:55.917Z,26.52
2022-08-17T22:30:40.309Z,23.57
2022-08-17T22:33:45.065Z,14.58
2022-08-17T22:36:34.590Z,12.82
2022-08-17T22:39:14.190Z,11.18
2022-08-17T22:41:59.610Z,14.03
2022-08-17T22:44:47.529Z,9.95
2022-08-17T22:47:26.783Z,11.78
2022-08-17T22:50:00.886Z,9.03
2022-08-17T22:53:02.257Z,9.28
2022-08-17T22:55:52.063Z,13.68
2022-08-17T22:58:41.907Z,12.85
2022-08-17T23:01:32.166Z,11.57
2022-08-17T23:04:06.629Z,11.03
2022-08-17T23:06:37.033Z,8.85
2022-08-17T23:09:06.874Z,11.57
2022-08-17T23:11:49.568Z,18.70
2022-08-17T23:14:11.888Z,19.50
2022-08-17T23:16:42.729Z,21.25
2022-08-17T23:19:17.498Z,20.45
2022-08-17T23:21:45.485Z,20.45
2022-08-17T23:24:21.294Z,16.75
2022-08-17T23:26:48.935Z,12.30
2022-08-17T23:29:16.855Z,11.73
2022-08-17T23:31:44.672Z,11.70
2022-08-17T23:34:14.662Z,17.50
2022-08-17T23:36:44.286Z,9.53
2022-08-17T23:39:12.002Z,8.63
2022-08-17T23:41:39.817Z,13.03
2022-08-17T23:44:07.640Z,8.53
2022-08-17T23:46:35.625Z,13.10
2022-08-17T23:49:03.917Z,15.50
2022-08-17T23:51:35.892Z,10.63
2022-08-17T23:54:10.515Z,8.65
2022-08-17T23:56:40.220Z,10.10
2022-08-17T23:59:07.983Z,8.55
